Terminal Aerodrome Forecast
Issued by NWS

Home | Current Version | Previous Version | Text Only | Print | Product List | Glossary On
Versions: 1 2 3 4 5 6 7 8 9 10 11 12 13 14 15 16 17 18 19 20 21 22 23 24 25 26 27 28 29 30 31 32
517
FTUS43 KGLD 091121
TAFMCK
TAF
KMCK 091121Z 0912/1012 13006KT P6SM SCT025 BKN090
      TEMPO 0912/0915 BKN025
     FM091700 17009KT P6SM BKN150
     FM092300 13004KT P6SM BKN090
     FM100700 VRB03KT P6SM SCT005 BKN025=

USA.gov is the U.S. government's official web portal to all federal, state and local government web resources and services.